createdAt,value
2023-04-18T00:01:21.435Z,102519.78
2023-04-18T00:03:52.289Z,102518.91
2023-04-18T00:06:22.153Z,102513.63
2023-04-18T00:08:49.644Z,102506.59
2023-04-18T00:11:17.086Z,102507.44
2023-04-18T00:13:47.352Z,102511.78
2023-04-18T00:16:15.639Z,102510.00
2023-04-18T00:18:43.150Z,102512.63
2023-04-18T00:21:10.678Z,102511.75
2023-04-18T00:23:38.577Z,102514.34
2023-04-18T00:26:06.001Z,102507.31
2023-04-18T00:28:33.483Z,102509.06
2023-04-18T00:31:01.031Z,102501.13
2023-04-18T00:33:28.480Z,102505.47
2023-04-18T00:35:55.947Z,102499.28
2023-04-18T00:38:23.401Z,102510.63
2023-04-18T00:40:50.892Z,102513.19
2023-04-18T00:43:18.357Z,102499.16
2023-04-18T00:45:45.822Z,102502.63
2023-04-18T00:48:13.788Z,102500.00
2023-04-18T00:50:41.726Z,102500.88
2023-04-18T00:53:11.174Z,102504.31
2023-04-18T00:55:39.943Z,102502.53
2023-04-18T00:58:07.499Z,102502.47
2023-04-18T01:00:35.529Z,102503.31
2023-04-18T01:03:03.467Z,102502.41
2023-04-18T01:05:31.206Z,102504.09
2023-04-18T01:08:01.144Z,102506.69
2023-04-18T01:10:30.514Z,102513.63
2023-04-18T01:13:16.160Z,102511.84
2023-04-18T01:15:49.652Z,102510.06
2023-04-18T01:18:17.930Z,102508.25
2023-04-18T01:20:50.091Z,102514.38
2023-04-18T01:23:21.255Z,102509.06
2023-04-18T01:25:51.980Z,102506.38
2023-04-18T01:28:23.846Z,102504.63
2023-04-18T01:30:51.491Z,102498.47
2023-04-18T01:33:19.001Z,102501.88
2023-04-18T01:35:47.864Z,102487.00
2023-04-18T01:38:15.423Z,102494.81
2023-04-18T01:40:42.927Z,102490.38
2023-04-18T01:43:10.385Z,102487.69
2023-04-18T01:45:38.739Z,102487.63
2023-04-18T01:48:06.529Z,102481.44
2023-04-18T01:50:34.088Z,102491.00
2023-04-18T01:53:01.555Z,102487.41
2023-04-18T01:55:29.052Z,102486.47
2023-04-18T01:57:56.624Z,102481.19
2023-04-18T02:00:24.377Z,102486.34
2023-04-18T02:02:51.930Z,102474.97
2023-04-18T02:05:21.597Z,102480.13
2023-04-18T02:07:50.235Z,102471.38
2023-04-18T02:10:19.203Z,102473.94
2023-04-18T02:12:46.845Z,102467.78
2023-04-18T02:15:14.330Z,102472.06
2023-04-18T02:17:42.256Z,102472.91
2023-04-18T02:20:10.797Z,102463.25
2023-04-18T02:22:39.448Z,102464.94
2023-04-18T02:25:07.562Z,102468.34
2023-04-18T02:27:35.184Z,102465.72
2023-04-18T02:30:02.762Z,102468.25
2023-04-18T02:32:34.308Z,102465.59
2023-04-18T02:35:01.917Z,102455.06
2023-04-18T02:37:29.332Z,102466.34
2023-04-18T02:39:56.907Z,102465.44
2023-04-18T02:42:24.415Z,102470.63
2023-04-18T02:44:52.009Z,102472.28
2023-04-18T02:47:19.791Z,102473.16
2023-04-18T02:49:47.650Z,102467.00
2023-04-18T02:52:15.333Z,102469.56
2023-04-18T02:54:42.797Z,102457.31
2023-04-18T02:57:15.253Z,102469.44
2023-04-18T02:59:54.888Z,102464.13
2023-04-18T03:02:57.968Z,102466.69
2023-04-18T03:05:42.084Z,102468.38
2023-04-18T03:08:09.804Z,102460.47
2023-04-18T03:10:39.292Z,102463.09
2023-04-18T03:13:06.922Z,102467.44
2023-04-18T03:15:34.589Z,102460.41
2023-04-18T03:18:02.787Z,102462.06
2023-04-18T03:20:34.689Z,102464.56
2023-04-18T03:23:02.070Z,102461.00
2023-04-18T03:25:31.685Z,102464.47
2023-04-18T03:28:00.082Z,102469.69
2023-04-18T03:30:28.587Z,102467.94
2023-04-18T03:32:59.427Z,102471.34
2023-04-18T03:35:26.864Z,102474.75
2023-04-18T03:37:55.636Z,102467.75
2023-04-18T03:40:26.293Z,102468.59
2023-04-18T03:42:57.932Z,102472.88
2023-04-18T03:45:25.837Z,102470.22
2023-04-18T03:48:18.108Z,102466.69
2023-04-18T03:50:47.288Z,102477.97
2023-04-18T03:53:16.145Z,102479.66
2023-04-18T03:55:43.973Z,102469.19
2023-04-18T03:58:14.552Z,102474.31
2023-04-18T04:00:42.489Z,102468.19
2023-04-18T04:03:11.952Z,102471.59
2023-04-18T04:05:40.746Z,102478.50
2023-04-18T04:08:08.175Z,102475.00
2023-04-18T04:10:35.960Z,102482.00
2023-04-18T04:13:03.788Z,102476.78
2023-04-18T04:15:34.312Z,102472.34
2023-04-18T04:18:06.866Z,102478.38
2023-04-18T04:20:37.437Z,102471.34
2023-04-18T04:23:13.240Z,102475.63
2023-04-18T04:25:42.562Z,102482.53
2023-04-18T04:28:23.904Z,102479.88
2023-04-18T04:30:59.928Z,102484.16
2023-04-18T04:33:33.227Z,102470.19
2023-04-18T04:36:08.943Z,102475.31
2023-04-18T04:38:38.400Z,102475.28
2023-04-18T04:41:07.729Z,102480.44
2023-04-18T04:43:35.472Z,102483.88
2023-04-18T04:46:04.702Z,102487.34
2023-04-18T04:48:32.258Z,102485.66
2023-04-18T04:51:01.208Z,102488.22
2023-04-18T04:53:32.437Z,102485.63
2023-04-18T04:56:01.776Z,102491.69
2023-04-18T04:58:29.352Z,102492.56
2023-04-18T05:01:09.295Z,102495.13
2023-04-18T05:03:38.193Z,102496.91
2023-04-18T05:06:06.245Z,102493.41
2023-04-18T05:08:33.795Z,102508.19
2023-04-18T05:11:02.498Z,102501.28
2023-04-18T05:13:30.106Z,102501.28
2023-04-18T05:15:59.313Z,102499.56
2023-04-18T05:18:26.851Z,102503.06
2023-04-18T05:20:55.798Z,102500.44
2023-04-18T05:23:23.321Z,102509.22
2023-04-18T05:25:51.081Z,102508.47
2023-04-18T05:28:18.496Z,102505.13
2023-04-18T05:30:49.078Z,102501.81
2023-04-18T05:33:18.116Z,102501.88
2023-04-18T05:35:45.553Z,102508.13
2023-04-18T05:38:12.994Z,102503.03
2023-04-18T05:40:40.481Z,102510.13
2023-04-18T05:43:08.102Z,102518.94
2023-04-18T05:45:35.893Z,102518.22
2023-04-18T05:48:03.558Z,102524.44
2023-04-18T05:50:31.027Z,102530.69
2023-04-18T05:52:59.301Z,102529.06
2023-04-18T05:55:27.140Z,102533.47
2023-04-18T05:57:54.584Z,102530.94
2023-04-18T06:00:22.268Z,102525.88
2023-04-18T06:02:53.304Z,102533.81
2023-04-18T06:05:21.219Z,102532.19
2023-04-18T06:07:49.163Z,102530.56
2023-04-18T06:10:17.142Z,102538.50
2023-04-18T06:12:44.594Z,102528.13
2023-04-18T06:15:12.295Z,102535.19
2023-04-18T06:17:39.911Z,102537.84
2023-04-18T06:20:09.968Z,102535.28
2023-04-18T06:22:37.557Z,102540.56
2023-04-18T06:25:05.804Z,102539.81
2023-04-18T06:27:33.275Z,102547.72
2023-04-18T06:30:01.045Z,102539.91
2023-04-18T06:32:28.511Z,102547.81
2023-04-18T06:34:56.110Z,102549.63
2023-04-18T06:37:24.125Z,102555.78
2023-04-18T06:39:51.584Z,102542.72
2023-04-18T06:42:21.555Z,102553.22
2023-04-18T06:44:50.341Z,102556.78
2023-04-18T06:47:17.961Z,102552.47
2023-04-18T06:49:45.534Z,102556.88
2023-04-18T06:52:13.133Z,102562.16
2023-04-18T06:54:40.766Z,102561.31
2023-04-18T06:57:08.811Z,102561.47
2023-04-18T06:59:37.410Z,102567.66
2023-04-18T07:02:04.992Z,102567.78
2023-04-18T07:04:32.512Z,102567.88
2023-04-18T07:07:01.611Z,102559.28
2023-04-18T07:09:29.265Z,102561.13
2023-04-18T07:11:56.973Z,102558.63
2023-04-18T07:14:25.400Z,102554.41
2023-04-18T07:16:52.941Z,102565.88
2023-04-18T07:19:20.536Z,102561.59
2023-04-18T07:21:47.996Z,102570.41
2023-04-18T07:24:15.609Z,102573.09
2023-04-18T07:26:43.414Z,102564.41
2023-04-18T07:29:10.935Z,102575.78
2023-04-18T07:31:38.431Z,102569.75
2023-04-18T07:34:06.229Z,102572.41
2023-04-18T07:36:33.828Z,102571.63
2023-04-18T07:39:01.739Z,102576.03
2023-04-18T07:41:29.284Z,102582.16
2023-04-18T07:43:56.744Z,102594.44
2023-04-18T07:46:24.205Z,102578.72
2023-04-18T07:48:51.639Z,102578.75
2023-04-18T07:51:19.059Z,102576.19
2023-04-18T07:53:46.510Z,102591.19
2023-04-18T07:56:14.511Z,102584.31
2023-04-18T07:58:42.054Z,102586.16
2023-04-18T08:01:13.523Z,102582.72
2023-04-18T08:03:41.762Z,102588.91
2023-04-18T08:06:09.773Z,102596.84
2023-04-18T08:08:37.226Z,102587.22
2023-04-18T08:11:04.691Z,102589.03
2023-04-18T08:13:32.168Z,102587.34
2023-04-18T08:16:00.303Z,102583.94
2023-04-18T08:18:27.752Z,102590.13
2023-04-18T08:20:55.252Z,102585.78
2023-04-18T08:23:22.847Z,102582.31
2023-04-18T08:25:50.962Z,102582.34
2023-04-18T08:28:18.594Z,102587.63
2023-04-18T08:30:49.146Z,102591.16
2023-04-18T08:33:16.691Z,102578.09
2023-04-18T08:35:44.228Z,102595.63
2023-04-18T08:38:11.765Z,102593.81
2023-04-18T08:40:39.292Z,102585.00
2023-04-18T08:43:12.663Z,102593.69
2023-04-18T08:45:42.214Z,102582.16
2023-04-18T08:48:17.777Z,102592.63
2023-04-18T08:50:45.530Z,102590.69
2023-04-18T08:53:13.677Z,102591.50
2023-04-18T08:55:42.115Z,102585.31
2023-04-18T08:58:12.368Z,102593.13
2023-04-18T09:00:40.148Z,102582.47
2023-04-18T09:03:07.703Z,102592.97
2023-04-18T09:05:35.622Z,102589.31
2023-04-18T09:08:24.309Z,102590.84
2023-04-18T09:10:51.898Z,102579.28
2023-04-18T09:13:39.842Z,102588.44
2023-04-18T09:16:07.388Z,102591.31
2023-04-18T09:18:35.207Z,102580.09
2023-04-18T09:21:19.891Z,102594.28
2023-04-18T09:23:47.472Z,102589.91
2023-04-18T09:26:34.201Z,102583.69
2023-04-18T09:29:03.266Z,102596.81
2023-04-18T09:31:30.930Z,102601.19
2023-04-18T09:33:58.536Z,102604.75
2023-04-18T09:36:27.936Z,102599.50
2023-04-18T09:38:56.691Z,102597.78
2023-04-18T09:41:24.892Z,102594.34
2023-04-18T09:44:14.523Z,102595.28
2023-04-18T09:46:46.671Z,102589.19
2023-04-18T09:49:16.100Z,102601.56
2023-04-18T09:51:46.066Z,102599.84
2023-04-18T09:54:16.811Z,102595.50
2023-04-18T09:56:46.482Z,102587.63
2023-04-18T09:59:22.054Z,102587.59
2023-04-18T10:01:51.418Z,102591.94
2023-04-18T10:04:20.039Z,102594.56
2023-04-18T10:06:47.859Z,102597.19
2023-04-18T10:09:16.502Z,102584.00
2023-04-18T10:11:44.683Z,102577.84
2023-04-18T10:14:16.227Z,102591.03
2023-04-18T10:16:49.917Z,102577.84
2023-04-18T10:19:27.288Z,102584.88
2023-04-18T10:21:58.037Z,102576.97
2023-04-18T10:24:56.139Z,102586.69
2023-04-18T10:27:48.614Z,102583.16
2023-04-18T10:30:17.332Z,102587.56
2023-04-18T10:32:48.101Z,102583.19
2023-04-18T10:35:15.588Z,102584.06
2023-04-18T10:37:51.193Z,102585.81
2023-04-18T10:40:34.170Z,102586.72
2023-04-18T10:43:02.421Z,102587.59
2023-04-18T10:45:35.386Z,102585.81
2023-04-18T10:48:24.805Z,102589.38
2023-04-18T10:51:23.353Z,102591.09
2023-04-18T10:53:59.029Z,102583.22
2023-04-18T10:56:28.138Z,102578.88
2023-04-18T10:59:03.084Z,102581.50
2023-04-18T11:01:33.159Z,102583.28
2023-04-18T11:04:01.410Z,102580.63
2023-04-18T11:06:31.133Z,102579.75
2023-04-18T11:09:14.633Z,102585.94
2023-04-18T11:11:44.077Z,102578.91
2023-04-18T11:14:12.216Z,102579.78
2023-04-18T11:16:40.043Z,102568.38
2023-04-18T11:19:23.519Z,102570.13
2023-04-18T11:21:51.715Z,102570.09
2023-04-18T11:24:25.336Z,102569.22
2023-04-18T11:26:56.324Z,102566.56
2023-04-18T11:29:23.969Z,102573.56
2023-04-18T11:31:58.259Z,102566.53
2023-04-18T11:34:31.547Z,102563.88
2023-04-18T11:36:59.823Z,102562.97
2023-04-18T11:39:27.982Z,102576.16
2023-04-18T11:41:57.168Z,102571.78
2023-04-18T11:44:26.028Z,102571.81
2023-04-18T11:46:54.117Z,102559.53
2023-04-18T11:49:33.015Z,102565.63
2023-04-18T11:52:01.379Z,102566.50
2023-04-18T11:54:43.821Z,102562.03
2023-04-18T11:57:27.354Z,102568.97
2023-04-18T11:59:58.076Z,102565.38
2023-04-18T12:02:46.153Z,102563.53
2023-04-18T12:05:32.671Z,102561.75
2023-04-18T12:08:18.668Z,102560.09
2023-04-18T12:10:50.931Z,102561.91
2023-04-18T12:13:24.266Z,102556.63
2023-04-18T12:15:51.789Z,102568.06
2023-04-18T12:18:19.901Z,102565.41
2023-04-18T12:20:51.484Z,102562.78
2023-04-18T12:23:30.467Z,102561.91
2023-04-18T12:26:22.919Z,102561.00
2023-04-18T12:28:52.842Z,102554.88
2023-04-18T12:31:21.796Z,102560.09
2023-04-18T12:33:50.560Z,102564.47
2023-04-18T12:36:18.455Z,102554.78
2023-04-18T12:38:46.732Z,102559.09
2023-04-18T12:41:14.203Z,102556.38
2023-04-18T12:43:42.032Z,102556.34
2023-04-18T12:46:09.666Z,102554.53
2023-04-18T12:48:37.217Z,102558.88
2023-04-18T12:51:04.771Z,102564.16
2023-04-18T12:53:32.242Z,102564.19
2023-04-18T12:55:59.803Z,102566.84
2023-04-18T12:58:27.228Z,102553.69
2023-04-18T13:00:55.878Z,102565.16
2023-04-18T13:03:23.697Z,102562.53
2023-04-18T13:05:53.472Z,102561.66
2023-04-18T13:08:22.362Z,102566.06
2023-04-18T13:10:49.996Z,102568.66
2023-04-18T13:13:17.562Z,102564.25
2023-04-18T13:15:45.014Z,102558.94
2023-04-18T13:18:12.517Z,102567.75
2023-04-18T13:20:42.051Z,102563.28
2023-04-18T13:23:09.534Z,102558.81
2023-04-18T13:25:37.062Z,102564.00
2023-04-18T13:28:04.778Z,102570.94
2023-04-18T13:30:32.326Z,102559.41
2023-04-18T13:32:59.937Z,102557.63
2023-04-18T13:35:27.605Z,102556.69
2023-04-18T13:37:55.160Z,102557.56
2023-04-18T13:40:23.003Z,102560.25
2023-04-18T13:42:50.999Z,102554.94
2023-04-18T13:45:19.052Z,102550.50
2023-04-18T13:47:46.612Z,102546.00
2023-04-18T13:50:14.271Z,102550.44
2023-04-18T13:52:41.869Z,102542.56
2023-04-18T13:55:10.692Z,102546.06
2023-04-18T13:57:38.165Z,102542.56
2023-04-18T14:00:06.873Z,102544.34
2023-04-18T14:02:39.653Z,102538.16
2023-04-18T14:05:08.174Z,102542.44
2023-04-18T14:07:36.313Z,102535.28
2023-04-18T14:10:04.628Z,102527.25
2023-04-18T14:12:32.240Z,102531.53
2023-04-18T14:14:59.689Z,102534.78
2023-04-18T14:17:27.348Z,102519.44
2023-04-18T14:19:55.097Z,102525.28
2023-04-18T14:22:22.649Z,102519.72
2023-04-18T14:24:52.378Z,102511.66
2023-04-18T14:27:20.587Z,102523.72
2023-04-18T14:29:48.886Z,102518.91
2023-04-18T14:32:16.358Z,102517.78
2023-04-18T14:34:43.924Z,102511.41
2023-04-18T14:37:11.473Z,102517.84
2023-04-18T14:39:38.932Z,102514.75
2023-04-18T14:42:06.374Z,102509.84
2023-04-18T14:44:33.840Z,102517.19
2023-04-18T14:47:01.807Z,102506.00
2023-04-18T14:49:29.461Z,102510.66
2023-04-18T14:51:56.977Z,102503.63
2023-04-18T14:54:24.566Z,102505.09
2023-04-18T14:56:52.021Z,102511.78
2023-04-18T14:59:19.838Z,102506.16
2023-04-18T15:01:47.706Z,102509.53
2023-04-18T15:04:15.557Z,102506.91
2023-04-18T15:06:43.418Z,102494.44
2023-04-18T15:09:11.102Z,102505.84
2023-04-18T15:11:38.591Z,102507.44
2023-04-18T15:14:06.509Z,102511.81
2023-04-18T15:16:38.044Z,102497.47
2023-04-18T15:19:05.477Z,102500.84
2023-04-18T15:21:35.529Z,102505.03
2023-04-18T15:24:03.566Z,102495.84
2023-04-18T15:26:33.014Z,102501.78
2023-04-18T15:29:04.522Z,102498.25
2023-04-18T15:31:34.075Z,102498.97
2023-04-18T15:34:01.843Z,102491.69
2023-04-18T15:36:29.408Z,102491.69
2023-04-18T15:38:56.999Z,102494.22
2023-04-18T15:41:27.781Z,102488.97
2023-04-18T15:43:56.917Z,102490.84
2023-04-18T15:46:24.576Z,102487.47
2023-04-18T15:48:52.270Z,102489.38
2023-04-18T15:51:31.646Z,102481.47
2023-04-18T15:53:59.344Z,102476.19
2023-04-18T15:56:33.009Z,102479.44
2023-04-18T15:59:04.415Z,102471.19
2023-04-18T16:01:32.345Z,102488.91
2023-04-18T16:04:00.002Z,102487.56
2023-04-18T16:06:27.672Z,102480.66
2023-04-18T16:08:55.216Z,102480.56
2023-04-18T16:11:26.022Z,102472.44
2023-04-18T16:13:56.067Z,102482.22
2023-04-18T16:16:23.722Z,102482.25
2023-04-18T16:18:51.246Z,102481.53
2023-04-18T16:21:18.758Z,102476.31
2023-04-18T16:23:48.904Z,102492.38
2023-04-18T16:26:16.710Z,102493.63
2023-04-18T16:28:44.269Z,102485.13
2023-04-18T16:31:14.519Z,102485.38
2023-04-18T16:33:42.523Z,102489.84
2023-04-18T16:36:10.377Z,102489.97
2023-04-18T16:38:38.049Z,102488.34
2023-04-18T16:41:05.908Z,102482.44
2023-04-18T16:43:36.736Z,102481.56
2023-04-18T16:46:05.118Z,102489.41
2023-04-18T16:48:33.561Z,102485.84
2023-04-18T16:51:07.415Z,102478.84
2023-04-18T16:53:35.491Z,102479.78
2023-04-18T16:56:03.645Z,102475.34
2023-04-18T16:58:32.077Z,102479.88
2023-04-18T17:01:06.791Z,102476.53
2023-04-18T17:03:37.464Z,102482.03
2023-04-18T17:06:05.817Z,102476.78
2023-04-18T17:08:34.202Z,102474.00
2023-04-18T17:11:02.396Z,102484.38
2023-04-18T17:13:33.064Z,102470.09
2023-04-18T17:16:00.778Z,102477.16
2023-04-18T17:18:29.315Z,102473.56
2023-04-18T17:20:56.869Z,102473.56
2023-04-18T17:23:25.891Z,102473.56
2023-04-18T17:25:53.756Z,102481.56
2023-04-18T17:28:23.565Z,102472.81
2023-04-18T17:30:51.355Z,102473.84
2023-04-18T17:33:19.059Z,102472.16
2023-04-18T17:35:50.148Z,102481.06
2023-04-18T17:38:17.634Z,102473.19
2023-04-18T17:40:45.411Z,102473.25
2023-04-18T17:43:12.891Z,102471.56
2023-04-18T17:45:41.302Z,102469.09
2023-04-18T17:48:08.886Z,102465.69
2023-04-18T17:50:38.003Z,102478.16
2023-04-18T17:53:05.513Z,102470.25
2023-04-18T17:55:32.967Z,102478.25
2023-04-18T17:58:00.644Z,102486.41
2023-04-18T18:00:28.226Z,102490.94
2023-04-18T18:02:57.029Z,102501.63
2023-04-18T18:05:25.958Z,102499.94
2023-04-18T18:07:54.333Z,102493.88
2023-04-18T18:10:23.733Z,102491.38
2023-04-18T18:12:51.733Z,102487.09
2023-04-18T18:15:19.650Z,102488.13
2023-04-18T18:17:51.626Z,102491.72
2023-04-18T18:20:19.531Z,102492.72
2023-04-18T18:22:47.765Z,102491.06
2023-04-18T18:25:15.801Z,102490.25
2023-04-18T18:27:43.305Z,102489.47
2023-04-18T18:30:11.155Z,102494.84
2023-04-18T18:32:38.739Z,102494.03
2023-04-18T18:35:07.290Z,102491.50
2023-04-18T18:37:34.910Z,102495.97
2023-04-18T18:40:04.947Z,102492.50
2023-04-18T18:42:32.523Z,102494.31
2023-04-18T18:45:01.608Z,102507.53
2023-04-18T18:47:30.593Z,102506.69
2023-04-18T18:49:58.153Z,102505.00
2023-04-18T18:52:28.052Z,102507.66
2023-04-18T18:54:55.702Z,102515.63
2023-04-18T18:57:23.183Z,102516.50
2023-04-18T18:59:50.683Z,102520.94
2023-04-18T19:02:18.372Z,102514.81
2023-04-18T19:04:47.410Z,102517.47
2023-04-18T19:07:15.127Z,102521.84
2023-04-18T19:09:42.630Z,102522.75
2023-04-18T19:12:10.125Z,102527.16
2023-04-18T19:14:37.655Z,102528.91
2023-04-18T19:17:05.213Z,102534.22
2023-04-18T19:19:32.731Z,102535.97
2023-04-18T19:22:01.243Z,102535.06
2023-04-18T19:24:28.728Z,102526.34
2023-04-18T19:26:56.793Z,102529.84
2023-04-18T19:29:24.324Z,102530.72
2023-04-18T19:31:51.885Z,102529.84
2023-04-18T19:34:19.588Z,102544.78
2023-04-18T19:36:47.000Z,102540.38
2023-04-18T19:39:14.858Z,102543.91
2023-04-18T19:41:42.531Z,102548.28
2023-04-18T19:44:10.066Z,102550.03
2023-04-18T19:46:37.722Z,102557.91
2023-04-18T19:49:05.749Z,102549.09
2023-04-18T19:51:33.314Z,102552.63
2023-04-18T19:54:00.767Z,102558.75
2023-04-18T19:56:28.173Z,102554.38
2023-04-18T19:58:55.764Z,102542.97
2023-04-18T20:01:24.891Z,102554.38
2023-04-18T20:03:54.013Z,102548.22
2023-04-18T20:06:25.120Z,102554.34
2023-04-18T20:08:55.897Z,102553.47
2023-04-18T20:11:24.387Z,102561.34
2023-04-18T20:13:54.511Z,102556.97
2023-04-18T20:16:23.610Z,102554.34
2023-04-18T20:18:51.948Z,102556.09
2023-04-18T20:21:20.996Z,102553.47
2023-04-18T20:23:48.406Z,102552.59
2023-04-18T20:26:15.861Z,102554.34
2023-04-18T20:28:43.292Z,102564.00
2023-04-18T20:31:12.594Z,102560.50
2023-04-18T20:33:40.302Z,102561.34
2023-04-18T20:36:08.254Z,102564.00
2023-04-18T20:38:37.026Z,102563.09
2023-04-18T20:41:04.553Z,102566.59
2023-04-18T20:43:36.539Z,102568.34
2023-04-18T20:46:04.266Z,102571.81
2023-04-18T20:48:31.689Z,102568.34
2023-04-18T20:50:59.147Z,102564.81
2023-04-18T20:53:31.127Z,102568.31
2023-04-18T20:56:02.621Z,102582.31
2023-04-18T20:58:30.289Z,102577.06
2023-04-18T21:00:57.808Z,102581.41
2023-04-18T21:03:25.756Z,102580.53
2023-04-18T21:05:53.264Z,102583.16
2023-04-18T21:08:20.719Z,102584.00
2023-04-18T21:10:48.125Z,102578.75
2023-04-18T21:13:15.764Z,102587.50
2023-04-18T21:15:43.387Z,102586.56
2023-04-18T21:18:10.956Z,102583.94
2023-04-18T21:20:38.589Z,102590.06
2023-04-18T21:23:06.124Z,102589.16
2023-04-18T21:25:33.684Z,102593.50
2023-04-18T21:28:01.284Z,102591.78
2023-04-18T21:30:28.796Z,102595.25
2023-04-18T21:32:56.499Z,102597.00
2023-04-18T21:35:24.929Z,102597.88
2023-04-18T21:37:52.664Z,102597.84
2023-04-18T21:40:20.193Z,102596.09
2023-04-18T21:42:50.928Z,102605.69
2023-04-18T21:45:19.014Z,102601.31
2023-04-18T21:47:47.028Z,102601.28
2023-04-18T21:50:14.645Z,102598.66
2023-04-18T21:52:42.126Z,102602.13
2023-04-18T21:55:09.880Z,102597.72
2023-04-18T21:57:37.281Z,102585.47
2023-04-18T22:00:08.499Z,102593.34
2023-04-18T22:02:37.543Z,102593.34
2023-04-18T22:05:05.662Z,102595.09
2023-04-18T22:07:34.202Z,102592.44
2023-04-18T22:10:05.780Z,102594.19
2023-04-18T22:12:34.209Z,102595.03
2023-04-18T22:15:01.661Z,102601.16
2023-04-18T22:17:29.905Z,102594.19
2023-04-18T22:19:57.760Z,102593.31
2023-04-18T22:22:25.211Z,102604.69
2023-04-18T22:24:52.688Z,102595.97
2023-04-18T22:27:20.281Z,102594.25
2023-04-18T22:29:47.749Z,102597.72
2023-04-18T22:32:15.221Z,102594.25
2023-04-18T22:34:42.705Z,102607.38
2023-04-18T22:37:10.228Z,102593.38
2023-04-18T22:39:37.824Z,102605.59
2023-04-18T22:42:05.440Z,102595.13
2023-04-18T22:44:33.012Z,102592.47
2023-04-18T22:47:00.843Z,102600.34
2023-04-18T22:49:28.437Z,102604.78
2023-04-18T22:51:56.967Z,102603.03
2023-04-18T22:54:24.503Z,102609.19
2023-04-18T22:56:52.195Z,102604.84
2023-04-18T22:59:19.780Z,102609.22
2023-04-18T23:01:47.278Z,102600.47
2023-04-18T23:04:15.124Z,102608.38
2023-04-18T23:06:42.879Z,102604.03
2023-04-18T23:09:10.381Z,102608.41
2023-04-18T23:11:37.839Z,102605.81
2023-04-18T23:14:06.436Z,102605.84
2023-04-18T23:16:34.369Z,102602.38
2023-04-18T23:19:01.803Z,102605.00
2023-04-18T23:21:29.478Z,102601.50
2023-04-18T23:23:57.012Z,102599.78
2023-04-18T23:26:25.367Z,102598.91
2023-04-18T23:28:53.437Z,102605.03
2023-04-18T23:31:22.069Z,102601.53
2023-04-18T23:33:49.499Z,102594.53
2023-04-18T23:36:16.964Z,102600.69
2023-04-18T23:38:44.533Z,102602.44
2023-04-18T23:41:12.007Z,102603.31
2023-04-18T23:43:39.535Z,102602.44
2023-04-18T23:46:07.026Z,102599.84
2023-04-18T23:48:34.565Z,102601.59
2023-04-18T23:51:02.222Z,102592.81
2023-04-18T23:53:30.024Z,102593.72
2023-04-18T23:55:57.437Z,102596.34
2023-04-18T23:58:26.357Z,102598.09
